DANGER1 -KLSV
Flight info
| Callsign | DANGER1 |
|---|---|
| Flight time | N/A |
| Altitude | VFR |
| Route | |
| Aircraft | F35/M-VGD/C |
Departure
| Time | N/A |
|---|---|
| Airport | - |
Arrival
| Time | 2026-05-04 03:01 |
|---|---|
| Airport | Nellis Air Force Base (KLSV) |
| Time | Latitude | Longitude | Altitude | Speed | Heading |
|---|---|---|---|---|---|
| 2026-05-04 02:56 | 36.24267 | -115.03189 | 2324 ft | 433 kts | 221° |
| 2026-05-04 02:56 | 36.21400 | -115.03947 | 2826 ft | 537 kts | 143° |
| 2026-05-04 02:57 | 36.20870 | -114.99964 | 2540 ft | 452 kts | 59° |
| 2026-05-04 02:57 | 36.23003 | -114.99979 | 2755 ft | 256 kts | 343° |
| 2026-05-04 02:57 | 36.24304 | -115.00440 | 3871 ft | 150 kts | 321° |
| 2026-05-04 02:57 | 36.24588 | -115.01559 | 3384 ft | 120 kts | 259° |
| 2026-05-04 02:58 | 36.24431 | -115.02202 | 2648 ft | 51 kts | 220° |
| 2026-05-04 02:58 | 36.24243 | -115.02552 | 2010 ft | 107 kts | 276° |
| 2026-05-04 02:58 | 36.23966 | -115.03266 | 1851 ft | 85 kts | 219° |
| 2026-05-04 02:58 | 36.23354 | -115.03973 | 2072 ft | 172 kts | 228° |
| 2026-05-04 02:59 | 36.22049 | -115.04872 | 1950 ft | 272 kts | 247° |
| 2026-05-04 02:59 | 36.21734 | -115.05440 | 5375 ft | 136 kts | 67° |
| 2026-05-04 02:59 | 36.22479 | -115.03926 | 3371 ft | 325 kts | 52° |
| 2026-05-04 02:59 | 36.23989 | -115.02735 | 2118 ft | 292 kts | 51° |
| 2026-05-04 03:00 | 36.25841 | -115.01357 | 2494 ft | 343 kts | 73° |
| 2026-05-04 03:00 | 36.25839 | -114.99357 | 3247 ft | 304 kts | 138° |
| 2026-05-04 03:00 | 36.25324 | -115.00673 | 3601 ft | 269 kts | 288° |
| 2026-05-04 03:00 | 36.24807 | -115.02245 | 2176 ft | 191 kts | 232° |
| 2026-05-04 03:01 | 36.24089 | -115.03135 | 1859 ft | 101 kts | 221° |
| 2026-05-04 03:01 | 36.23890 | -115.03358 | 1851 ft | 32 kts | 221° |
| 2026-05-04 03:01 | 36.23677 | -115.03587 | 1850 ft | 29 kts | 221° |
| 2026-05-04 03:01 | 36.23533 | -115.03745 | 1850 ft | 27 kts | 224° |
| 2026-05-04 03:02 | 36.23457 | -115.03903 | 1848 ft | 16 kts | 297° |
| 2026-05-04 03:02 | 36.23502 | -115.04013 | 1846 ft | 14 kts | 248° |
| 2026-05-04 03:02 | 36.23476 | -115.04094 | 1844 ft | 9 kts | 308° |
| 2026-05-04 03:02 | 36.23474 | -115.04131 | 1843 ft | 2 kts | 221° |